createdAt,value
2022-11-27T00:01:32.845Z,1.83
2022-11-27T00:04:40.121Z,1.83
2022-11-27T00:07:47.017Z,1.83
2022-11-27T00:10:53.874Z,1.87
2022-11-27T00:14:00.686Z,1.85
2022-11-27T00:17:07.155Z,1.79
2022-11-27T00:20:14.398Z,1.71
2022-11-27T00:23:21.615Z,1.65
2022-11-27T00:26:30.022Z,1.65
2022-11-27T00:29:29.850Z,1.69
2022-11-27T00:32:37.016Z,1.65
2022-11-27T00:35:43.538Z,1.60
2022-11-27T00:38:50.790Z,1.58
2022-11-27T00:41:57.618Z,1.52
2022-11-27T00:45:04.455Z,1.54
2022-11-27T00:48:11.137Z,1.54
2022-11-27T00:51:17.609Z,1.50
2022-11-27T00:54:24.460Z,1.50
2022-11-27T00:57:31.394Z,1.46
2022-11-27T01:00:38.289Z,1.39
2022-11-27T01:03:45.117Z,1.34
2022-11-27T01:06:51.609Z,1.24
2022-11-27T01:09:58.890Z,1.29
2022-11-27T01:13:06.241Z,1.32
2022-11-27T01:16:12.808Z,1.33
2022-11-27T01:19:20.128Z,1.36
2022-11-27T01:22:27.471Z,1.33
2022-11-27T01:25:33.924Z,1.29
2022-11-27T01:28:41.011Z,1.21
2022-11-27T01:31:47.953Z,1.16
2022-11-27T01:34:54.832Z,1.12
2022-11-27T01:38:02.154Z,1.12
2022-11-27T01:41:08.890Z,1.10
2022-11-27T01:44:15.674Z,1.01
2022-11-27T01:47:22.704Z,1.04
2022-11-27T01:50:26.619Z,1.06
2022-11-27T01:53:33.605Z,1.04
2022-11-27T01:56:40.357Z,1.00
2022-11-27T01:59:47.526Z,1.00
2022-11-27T02:02:54.449Z,1.03
2022-11-27T02:06:01.276Z,1.01
2022-11-27T02:09:07.975Z,0.92
2022-11-27T02:12:14.434Z,0.89
2022-11-27T02:15:21.626Z,0.83
2022-11-27T02:18:28.507Z,0.83
2022-11-27T02:21:35.247Z,0.85
2022-11-27T02:24:42.763Z,0.85
2022-11-27T02:27:49.299Z,0.82
2022-11-27T02:30:56.438Z,0.82
2022-11-27T02:34:03.741Z,0.85
2022-11-27T02:37:10.233Z,0.82
2022-11-27T02:40:17.332Z,0.79
2022-11-27T02:43:24.480Z,0.78
2022-11-27T02:46:31.122Z,0.75
2022-11-27T02:49:38.041Z,0.70
2022-11-27T02:52:45.171Z,0.68
2022-11-27T02:55:51.750Z,0.70
2022-11-27T02:58:58.490Z,0.62
2022-11-27T03:02:04.973Z,0.64
2022-11-27T03:05:11.749Z,0.60
2022-11-27T03:08:18.961Z,0.51
2022-11-27T03:11:25.344Z,0.49
2022-11-27T03:14:32.482Z,0.51
2022-11-27T03:17:39.573Z,0.49
2022-11-27T03:20:46.033Z,0.46
2022-11-27T03:23:53.271Z,0.43
2022-11-27T03:27:00.124Z,0.42
2022-11-27T03:30:06.968Z,0.41
2022-11-27T03:33:14.353Z,0.38
2022-11-27T03:36:21.213Z,0.34
2022-11-27T03:39:28.115Z,0.31
2022-11-27T03:42:34.645Z,0.36
2022-11-27T03:45:42.045Z,0.34
2022-11-27T03:48:48.925Z,0.33
2022-11-27T03:51:55.477Z,0.34
2022-11-27T03:55:02.766Z,0.39
2022-11-27T03:58:09.687Z,0.43
2022-11-27T04:01:16.498Z,0.45
2022-11-27T04:04:23.717Z,0.43
2022-11-27T04:07:31.041Z,0.42
2022-11-27T04:10:37.577Z,0.43
2022-11-27T04:13:44.887Z,0.43
2022-11-27T04:16:51.812Z,0.43
2022-11-27T04:19:58.748Z,0.43
2022-11-27T04:23:06.199Z,0.49
2022-11-27T04:26:12.900Z,0.48
2022-11-27T04:29:19.719Z,0.48
2022-11-27T04:32:26.540Z,0.45
2022-11-27T04:35:33.811Z,0.46
2022-11-27T04:38:40.696Z,0.43
2022-11-27T04:41:47.420Z,0.42
2022-11-27T04:44:54.601Z,0.41
2022-11-27T04:48:01.472Z,0.36
2022-11-27T04:51:08.410Z,0.31
2022-11-27T04:54:15.602Z,0.33
2022-11-27T04:57:22.462Z,0.33
2022-11-27T05:00:29.228Z,0.41
2022-11-27T05:03:35.994Z,0.38
2022-11-27T05:06:42.473Z,0.31
2022-11-27T05:09:49.823Z,0.21
2022-11-27T05:12:56.753Z,0.20
2022-11-27T05:16:03.677Z,0.15
2022-11-27T05:19:10.318Z,0.09
2022-11-27T05:22:17.044Z,0.06
2022-11-27T05:25:23.965Z,0.00
2022-11-27T05:28:31.325Z,-0.05
2022-11-27T05:31:37.897Z,-0.06
2022-11-27T05:34:44.935Z,-0.05
2022-11-27T05:37:52.154Z,-0.08
2022-11-27T05:40:58.705Z,-0.04
2022-11-27T05:44:05.992Z,-0.08
2022-11-27T05:47:13.076Z,-0.05
2022-11-27T05:50:19.536Z,-0.11
2022-11-27T05:53:26.717Z,-0.06
2022-11-27T05:56:33.688Z,-0.06
2022-11-27T05:59:40.196Z,-0.04
2022-11-27T06:02:47.711Z,0.06
2022-11-27T06:05:54.563Z,0.15
2022-11-27T06:09:01.458Z,0.36
2022-11-27T06:12:08.589Z,0.48
2022-11-27T06:15:15.348Z,0.62
2022-11-27T06:18:22.199Z,0.70
2022-11-27T06:21:28.669Z,0.78
2022-11-27T06:24:35.671Z,0.82
2022-11-27T06:27:42.529Z,0.80
2022-11-27T06:30:49.039Z,0.79
2022-11-27T06:33:56.029Z,0.71
2022-11-27T06:37:02.852Z,0.68
2022-11-27T06:40:09.589Z,0.67
2022-11-27T06:43:16.810Z,0.65
2022-11-27T06:46:23.270Z,0.67
2022-11-27T06:49:30.145Z,0.71
2022-11-27T06:52:40.338Z,0.67
2022-11-27T06:55:36.801Z,0.70
2022-11-27T06:58:43.901Z,0.76
2022-11-27T07:01:50.850Z,0.83
2022-11-27T07:04:57.592Z,0.85
2022-11-27T07:08:04.971Z,0.79
2022-11-27T07:11:11.414Z,0.82
2022-11-27T07:14:18.642Z,0.88
2022-11-27T07:17:25.790Z,0.92
2022-11-27T07:20:32.574Z,0.92
2022-11-27T07:23:41.561Z,0.97
2022-11-27T07:26:48.955Z,1.07
2022-11-27T07:29:59.477Z,1.08
2022-11-27T07:33:06.931Z,1.07
2022-11-27T07:36:13.894Z,1.10
2022-11-27T07:39:39.342Z,1.15
2022-11-27T07:42:40.638Z,1.14
2022-11-27T07:45:29.104Z,1.12
2022-11-27T07:48:35.926Z,1.14
2022-11-27T07:51:42.816Z,1.16
2022-11-27T07:54:49.333Z,1.24
2022-11-27T07:57:56.618Z,1.33
2022-11-27T08:01:03.627Z,1.37
2022-11-27T08:04:10.700Z,1.46
2022-11-27T08:07:17.821Z,1.52
2022-11-27T08:10:24.648Z,1.64
2022-11-27T08:13:31.540Z,1.75
2022-11-27T08:16:38.577Z,1.83
2022-11-27T08:19:46.998Z,1.89
2022-11-27T08:22:58.120Z,1.98
2022-11-27T08:25:56.890Z,2.04
2022-11-27T08:29:03.750Z,2.08
2022-11-27T08:32:10.514Z,2.10
2022-11-27T08:35:17.444Z,2.06
2022-11-27T08:38:24.730Z,2.02
2022-11-27T08:41:31.593Z,1.97
2022-11-27T08:44:38.207Z,1.93
2022-11-27T08:47:45.373Z,1.91
2022-11-27T08:50:51.884Z,1.90
2022-11-27T08:53:58.985Z,1.93
2022-11-27T08:57:05.852Z,2.02
2022-11-27T09:00:12.314Z,2.17
2022-11-27T09:03:19.495Z,2.28
2022-11-27T09:06:26.671Z,2.45
2022-11-27T09:09:33.242Z,2.55
2022-11-27T09:12:43.403Z,2.66
2022-11-27T09:15:50.494Z,2.77
2022-11-27T09:18:57.296Z,2.84
2022-11-27T09:22:04.496Z,2.91
2022-11-27T09:25:11.445Z,3.00
2022-11-27T09:28:18.218Z,3.07
2022-11-27T09:31:25.494Z,3.15
2022-11-27T09:34:37.160Z,3.20
2022-11-27T09:37:33.739Z,3.21
2022-11-27T09:40:40.549Z,3.18
2022-11-27T09:43:47.468Z,3.21
2022-11-27T09:46:54.707Z,3.24
2022-11-27T09:50:01.511Z,3.24
2022-11-27T09:53:08.540Z,3.31
2022-11-27T09:56:15.569Z,3.42
2022-11-27T09:59:22.384Z,3.47
2022-11-27T10:02:29.408Z,3.61
2022-11-27T10:05:35.992Z,3.72
2022-11-27T10:08:43.321Z,3.94
2022-11-27T10:11:50.242Z,4.08
2022-11-27T10:14:57.034Z,4.25
2022-11-27T10:18:04.163Z,4.37
2022-11-27T10:21:10.725Z,4.50
2022-11-27T10:24:18.008Z,4.58
2022-11-27T10:27:24.712Z,4.76
2022-11-27T10:30:31.167Z,4.88
2022-11-27T10:33:38.007Z,4.99
2022-11-27T10:36:44.645Z,5.13
2022-11-27T10:39:51.246Z,5.31
2022-11-27T10:42:58.156Z,5.49
2022-11-27T10:46:05.034Z,5.66
2022-11-27T10:49:11.876Z,5.71
2022-11-27T10:52:19.096Z,5.77
2022-11-27T10:55:26.027Z,5.74
2022-11-27T10:58:32.569Z,5.74
2022-11-27T11:01:39.529Z,5.74
2022-11-27T11:05:03.299Z,5.73
2022-11-27T11:07:51.056Z,5.73
2022-11-27T11:10:57.839Z,5.73
2022-11-27T11:14:04.840Z,5.67
2022-11-27T11:17:11.774Z,5.70
2022-11-27T11:20:18.529Z,5.68
2022-11-27T11:23:25.312Z,5.71
2022-11-27T11:26:32.282Z,5.73
2022-11-27T11:29:39.204Z,5.75
2022-11-27T11:32:46.037Z,5.75
2022-11-27T11:35:52.604Z,5.78
2022-11-27T11:39:00.034Z,5.83
2022-11-27T11:42:06.951Z,5.88
2022-11-27T11:45:13.968Z,5.92
2022-11-27T11:48:20.909Z,5.96
2022-11-27T11:51:29.464Z,6.03
2022-11-27T11:54:36.127Z,6.06
2022-11-27T11:57:42.939Z,6.11
2022-11-27T12:01:26.052Z,6.16
2022-11-27T12:03:53.596Z,6.25
2022-11-27T12:07:00.790Z,6.30
2022-11-27T12:10:07.259Z,6.38
2022-11-27T12:13:14.468Z,6.50
2022-11-27T12:16:21.841Z,6.61
2022-11-27T12:19:28.233Z,6.69
2022-11-27T12:22:35.281Z,6.76
2022-11-27T12:25:41.983Z,6.81
2022-11-27T12:28:50.379Z,6.87
2022-11-27T12:31:49.707Z,6.86
2022-11-27T12:34:56.216Z,6.87
2022-11-27T12:38:03.495Z,6.87
2022-11-27T12:41:10.697Z,6.86
2022-11-27T12:44:17.236Z,6.84
2022-11-27T12:47:24.345Z,6.81
2022-11-27T12:50:31.247Z,6.81
2022-11-27T12:53:38.067Z,6.80
2022-11-27T12:56:45.338Z,6.79
2022-11-27T12:59:52.098Z,6.81
2022-11-27T13:02:58.891Z,6.81
2022-11-27T13:06:05.498Z,6.84
2022-11-27T13:09:12.751Z,6.87
2022-11-27T13:12:19.531Z,6.86
2022-11-27T13:15:26.491Z,6.87
2022-11-27T13:18:33.613Z,6.87
2022-11-27T13:21:40.424Z,6.90
2022-11-27T13:24:47.241Z,6.89
2022-11-27T13:27:54.204Z,6.90
2022-11-27T13:31:00.754Z,6.90
2022-11-27T13:34:07.864Z,6.91
2022-11-27T13:37:14.706Z,6.90
2022-11-27T13:40:21.505Z,6.90
2022-11-27T13:43:28.748Z,6.90
2022-11-27T13:46:35.286Z,6.89
2022-11-27T13:49:42.097Z,6.89
2022-11-27T13:52:48.939Z,6.87
2022-11-27T13:55:55.479Z,6.83
2022-11-27T13:59:02.635Z,6.81
2022-11-27T14:02:09.275Z,6.80
2022-11-27T14:05:16.417Z,6.77
2022-11-27T14:08:23.520Z,6.76
2022-11-27T14:11:30.109Z,6.73
2022-11-27T14:14:37.232Z,6.71
2022-11-27T14:17:44.553Z,6.66
2022-11-27T14:20:51.109Z,6.61
2022-11-27T14:23:58.344Z,6.58
2022-11-27T14:27:04.813Z,6.54
2022-11-27T14:30:11.975Z,6.51
2022-11-27T14:33:18.575Z,6.50
2022-11-27T14:36:24.896Z,6.47
2022-11-27T14:39:32.006Z,6.41
2022-11-27T14:42:39.371Z,6.41
2022-11-27T14:45:45.847Z,6.40
2022-11-27T14:48:53.097Z,6.35
2022-11-27T14:51:59.815Z,6.35
2022-11-27T14:55:06.578Z,6.35
2022-11-27T14:58:13.911Z,6.32
2022-11-27T15:01:20.935Z,6.26
2022-11-27T15:04:27.896Z,6.21
2022-11-27T15:07:41.941Z,6.19
2022-11-27T15:10:39.023Z,6.19
2022-11-27T15:13:46.239Z,6.16
2022-11-27T15:16:52.931Z,6.13
2022-11-27T15:20:00.251Z,6.09
2022-11-27T15:23:07.073Z,6.07
2022-11-27T15:26:16.816Z,6.03
2022-11-27T15:29:23.725Z,6.01
2022-11-27T15:32:30.125Z,6.01
2022-11-27T15:35:37.335Z,6.00
2022-11-27T15:38:44.556Z,5.95
2022-11-27T15:41:51.016Z,5.93
2022-11-27T15:44:58.247Z,5.92
2022-11-27T15:48:04.979Z,5.91
2022-11-27T15:51:11.439Z,5.86
2022-11-27T15:54:18.738Z,5.85
2022-11-27T15:57:26.100Z,5.83
2022-11-27T16:00:32.621Z,5.81
2022-11-27T16:03:39.719Z,5.81
2022-11-27T16:06:46.867Z,5.73
2022-11-27T16:09:53.332Z,5.71
2022-11-27T16:13:00.493Z,5.71
2022-11-27T16:16:07.341Z,5.71
2022-11-27T16:19:14.102Z,5.70
2022-11-27T16:22:21.294Z,5.71
2022-11-27T16:25:28.123Z,5.71
2022-11-27T16:28:34.953Z,5.71
2022-11-27T16:31:42.354Z,5.73
2022-11-27T16:34:48.785Z,5.70
2022-11-27T16:37:56.085Z,5.68
2022-11-27T16:41:02.685Z,5.67
2022-11-27T16:44:09.478Z,5.67
2022-11-27T16:47:16.556Z,5.66
2022-11-27T16:50:23.046Z,5.64
2022-11-27T16:53:29.656Z,5.63
2022-11-27T16:56:36.594Z,5.59
2022-11-27T16:59:43.291Z,5.56
2022-11-27T17:02:50.123Z,5.53
2022-11-27T17:05:56.808Z,5.49
2022-11-27T17:09:03.900Z,5.45
2022-11-27T17:12:10.687Z,5.41
2022-11-27T17:15:17.481Z,5.35
2022-11-27T17:18:24.828Z,5.32
2022-11-27T17:21:31.745Z,5.34
2022-11-27T17:24:38.673Z,5.34
2022-11-27T17:27:45.992Z,5.35
2022-11-27T17:30:52.396Z,5.35
2022-11-27T17:33:59.764Z,5.35
2022-11-27T17:37:07.180Z,5.38
2022-11-27T17:40:13.705Z,5.38
2022-11-27T17:43:20.946Z,5.40
2022-11-27T17:46:28.103Z,5.40
2022-11-27T17:49:34.624Z,5.37
2022-11-27T17:52:41.732Z,5.38
2022-11-27T17:55:49.228Z,5.38
2022-11-27T17:58:55.756Z,5.40
2022-11-27T18:02:02.998Z,5.41
2022-11-27T18:05:09.808Z,5.43
2022-11-27T18:08:16.628Z,5.43
2022-11-27T18:11:23.908Z,5.45
2022-11-27T18:14:30.709Z,5.43
2022-11-27T18:17:37.629Z,5.41
2022-11-27T18:20:44.681Z,5.43
2022-11-27T18:27:11.053Z,5.40
2022-11-27T18:29:59.910Z,5.41
2022-11-27T18:33:06.803Z,5.43
2022-11-27T18:36:14.095Z,5.40
2022-11-27T18:39:20.863Z,5.35
2022-11-27T18:42:27.565Z,5.35
2022-11-27T18:45:36.116Z,5.35
2022-11-27T18:48:42.954Z,5.35
2022-11-27T18:51:49.874Z,5.34
2022-11-27T18:54:56.755Z,5.37
2022-11-27T18:58:03.526Z,5.37
2022-11-27T19:01:10.111Z,5.35
2022-11-27T19:04:16.846Z,5.37
2022-11-27T19:07:23.696Z,5.40
2022-11-27T19:10:30.557Z,5.41
2022-11-27T19:13:37.230Z,5.38
2022-11-27T19:16:44.457Z,5.38
2022-11-27T19:19:55.124Z,5.35
2022-11-27T19:22:51.329Z,5.34
2022-11-27T19:25:58.470Z,5.31
2022-11-27T19:29:04.970Z,5.25
2022-11-27T19:32:12.327Z,5.20
2022-11-27T19:35:19.509Z,5.14
2022-11-27T19:38:26.063Z,5.10
2022-11-27T19:41:33.303Z,5.13
2022-11-27T19:44:40.462Z,5.13
2022-11-27T19:47:47.746Z,5.17
2022-11-27T19:50:55.438Z,5.22
2022-11-27T19:54:08.401Z,5.25
2022-11-27T19:57:07.491Z,5.30
2022-11-27T20:00:14.635Z,5.34
2022-11-27T20:03:21.325Z,5.38
2022-11-27T20:06:28.386Z,5.40
2022-11-27T20:09:36.316Z,5.48
2022-11-27T20:12:43.018Z,5.48
2022-11-27T20:15:50.418Z,5.52
2022-11-27T20:18:57.958Z,5.53
2022-11-27T20:22:04.713Z,5.55
2022-11-27T20:25:19.365Z,5.56
2022-11-27T20:28:15.248Z,5.55
2022-11-27T20:31:22.178Z,5.55
2022-11-27T20:34:29.543Z,5.55
2022-11-27T20:37:36.411Z,5.53
2022-11-27T20:40:43.390Z,5.53
2022-11-27T20:43:50.351Z,5.53
2022-11-27T20:46:57.612Z,5.50
2022-11-27T20:50:04.363Z,5.50
2022-11-27T20:53:10.931Z,5.48
2022-11-27T20:56:17.905Z,5.48
2022-11-27T20:59:24.893Z,5.48
2022-11-27T21:02:31.797Z,5.50
2022-11-27T21:05:38.621Z,5.49
2022-11-27T21:08:45.136Z,5.49
2022-11-27T21:11:52.065Z,5.49
2022-11-27T21:14:59.278Z,5.49
2022-11-27T21:18:05.905Z,5.50
2022-11-27T21:21:13.004Z,5.49
2022-11-27T21:24:20.253Z,5.50
2022-11-27T21:27:26.799Z,5.52
2022-11-27T21:30:34.185Z,5.52
2022-11-27T21:33:40.882Z,5.49
2022-11-27T21:36:47.986Z,5.49
2022-11-27T21:39:55.017Z,5.49
2022-11-27T21:43:01.877Z,5.48
2022-11-27T21:46:08.926Z,5.49
2022-11-27T21:49:16.153Z,5.50
2022-11-27T21:52:22.950Z,5.50
2022-11-27T21:55:29.870Z,5.52
2022-11-27T21:58:36.732Z,5.53
2022-11-27T22:01:43.754Z,5.50
2022-11-27T22:04:50.553Z,5.49
2022-11-27T22:07:57.508Z,5.49
2022-11-27T22:11:04.474Z,5.46
2022-11-27T22:14:11.885Z,5.46
2022-11-27T22:17:18.811Z,5.48
2022-11-27T22:20:25.997Z,5.49
2022-11-27T22:23:32.445Z,5.48
2022-11-27T22:26:39.485Z,5.48
2022-11-27T22:29:46.537Z,5.48
2022-11-27T22:32:53.067Z,5.48
2022-11-27T22:36:00.192Z,5.46
2022-11-27T22:39:07.140Z,5.45
2022-11-27T22:42:14.159Z,5.46
2022-11-27T22:45:21.399Z,5.45
2022-11-27T22:48:27.950Z,5.45
2022-11-27T22:51:34.930Z,5.43
2022-11-27T22:54:42.521Z,5.41
2022-11-27T22:57:49.239Z,5.40
2022-11-27T23:00:56.172Z,5.41
2022-11-27T23:04:03.616Z,5.40
2022-11-27T23:07:10.071Z,5.40
2022-11-27T23:10:16.905Z,5.38
2022-11-27T23:13:23.735Z,5.38
2022-11-27T23:16:30.614Z,5.38
2022-11-27T23:19:37.762Z,5.38
2022-11-27T23:22:44.665Z,5.40
2022-11-27T23:25:51.557Z,5.40
2022-11-27T23:28:58.986Z,5.40
2022-11-27T23:32:05.814Z,5.38
2022-11-27T23:35:12.708Z,5.38
2022-11-27T23:38:19.679Z,5.37
2022-11-27T23:41:26.918Z,5.40
2022-11-27T23:44:33.929Z,5.40
2022-11-27T23:47:41.259Z,5.41
2022-11-27T23:50:48.310Z,5.40
2022-11-27T23:53:55.300Z,5.38
2022-11-27T23:57:02.219Z,5.37
